Time;durP1;ratioP1;P1;durP2;ratioP2;P2;SDS_P1;SDS_P2;PMS_P1;PMS_P2;Temp;Humidity;BMP_temperature;BMP_pressure;BME280_temperature;BME280_humidity;BME280_pressure;Samples;Min_cycle;Max_cycle;Signal;HPM_P1;HPM_P2
2023/12/06 00:01:23;;;;;;;14.60;7.30;;;;;;;3.00;73.06;101408.38;107621;1251;112699;-61
2023/12/06 00:03:52;;;;;;;14.50;7.60;;;;;;;2.93;72.53;101411.50;107698;1251;109253;-61
2023/12/06 00:06:21;;;;;;;14.10;7.50;;;;;;;2.86;72.47;101412.73;107604;1250;107430;-62
2023/12/06 00:08:52;;;;;;;16.80;8.40;;;;;;;2.76;72.48;101409.80;107602;1251;99230;-61
2023/12/06 00:11:21;;;;;;;13.40;7.40;;;;;;;2.68;72.45;101409.63;107586;1251;99329;-62
2023/12/06 00:13:49;;;;;;;17.10;8.80;;;;;;;2.65;72.55;101417.17;107577;1251;113796;-62
2023/12/06 00:16:17;;;;;;;17.20;8.40;;;;;;;2.60;72.74;101416.02;107599;1250;110670;-66
2023/12/06 00:18:48;;;;;;;13.70;7.90;;;;;;;2.54;72.69;101414.15;107622;1250;107996;-62
2023/12/06 00:21:17;;;;;;;14.90;8.20;;;;;;;2.49;73.36;101416.66;107535;1250;99208;-62
2023/12/06 00:23:45;;;;;;;14.20;7.80;;;;;;;2.50;73.62;101415.34;107621;1251;99084;-62
2023/12/06 00:26:14;;;;;;;13.20;8.20;;;;;;;2.54;73.73;101419.12;107581;1250;113327;-64
2023/12/06 00:28:42;;;;;;;18.70;8.60;;;;;;;2.56;73.92;101422.03;107675;1251;109834;-63
2023/12/06 00:31:10;;;;;;;15.90;8.20;;;;;;;2.59;73.76;101425.44;107615;1250;108627;-61
2023/12/06 00:33:39;;;;;;;18.20;8.30;;;;;;;2.60;73.59;101426.95;107569;1252;99191;-62
2023/12/06 00:36:08;;;;;;;16.80;8.70;;;;;;;2.58;73.29;101426.52;107618;1251;99070;-61
2023/12/06 00:38:36;;;;;;;14.50;8.70;;;;;;;2.53;73.47;101434.91;107578;1250;113104;-62
2023/12/06 00:41:05;;;;;;;20.60;9.00;;;;;;;2.50;73.61;101435.73;107563;1251;109890;-61
2023/12/06 00:43:34;;;;;;;14.70;7.60;;;;;;;2.48;73.54;101432.98;107483;1253;108261;-62
2023/12/06 00:46:03;;;;;;;12.90;8.10;;;;;;;2.47;73.79;101428.23;107614;1251;99847;-62
2023/12/06 00:48:32;;;;;;;12.50;7.50;;;;;;;2.48;74.27;101432.09;107606;1251;99716;-62
2023/12/06 00:51:01;;;;;;;15.00;8.60;;;;;;;2.49;74.17;101437.00;107627;1251;112761;-62
2023/12/06 00:53:30;;;;;;;17.50;9.00;;;;;;;2.55;74.65;101435.71;107675;1251;110630;-62
2023/12/06 00:55:58;;;;;;;12.70;7.80;;;;;;;2.63;74.78;101432.68;107611;1251;106490;-61
2023/12/06 00:58:27;;;;;;;12.00;8.10;;;;;;;2.72;74.90;101434.58;107643;1251;99871;-62
2023/12/06 01:00:56;;;;;;;14.10;8.60;;;;;;;2.78;74.57;101434.14;107572;1251;99185;-64
2023/12/06 01:03:24;;;;;;;13.40;7.80;;;;;;;2.80;74.45;101439.36;107610;1251;113514;-61
2023/12/06 01:05:54;;;;;;;12.60;8.20;;;;;;;2.79;74.44;101437.46;107596;1251;108524;-60
2023/12/06 01:08:24;;;;;;;12.10;7.50;;;;;;;2.74;74.22;101440.86;107629;1251;107673;-60
2023/12/06 01:10:53;;;;;;;16.60;8.50;;;;;;;2.72;74.07;101437.78;107630;1251;99188;-62
2023/12/06 01:13:22;;;;;;;14.60;8.20;;;;;;;2.73;74.31;101433.32;107640;1254;99285;-61
2023/12/06 01:15:50;;;;;;;13.20;7.90;;;;;;;2.71;74.43;101433.05;107614;1251;113192;-63
2023/12/06 01:18:18;;;;;;;13.70;8.10;;;;;;;2.69;74.50;101433.13;107572;1250;109876;-63
2023/12/06 01:20:47;;;;;;;15.70;7.90;;;;;;;2.70;74.62;101426.70;107615;1251;108135;-62
2023/12/06 01:23:15;;;;;;;13.20;8.50;;;;;;;2.74;74.72;101421.58;107628;1251;99286;-63
2023/12/06 01:25:44;;;;;;;18.70;8.60;;;;;;;2.77;74.73;101423.55;107658;1256;99064;-63
2023/12/06 01:28:12;;;;;;;24.40;9.70;;;;;;;2.79;74.51;101420.45;107621;1251;112710;-62
2023/12/06 01:30:40;;;;;;;21.40;10.70;;;;;;;2.81;74.58;101421.08;107651;1251;110022;-62
2023/12/06 01:33:09;;;;;;;17.00;10.00;;;;;;;2.78;74.42;101418.17;107642;1253;108095;-62
2023/12/06 01:35:37;;;;;;;20.50;10.00;;;;;;;2.76;74.42;101416.13;107602;1251;99180;-61
2023/12/06 01:38:05;;;;;;;17.20;10.80;;;;;;;2.72;74.31;101411.93;107624;1251;99733;-63
2023/12/06 01:40:36;;;;;;;11.90;8.10;;;;;;;2.69;74.54;101412.58;107657;1251;114242;-61
2023/12/06 01:43:06;;;;;;;17.90;9.20;;;;;;;2.66;74.42;101410.21;107680;1251;109683;-62
2023/12/06 01:45:35;;;;;;;17.70;9.60;;;;;;;2.63;74.12;101408.58;107474;1253;107010;-62
2023/12/06 01:48:04;;;;;;;16.70;8.80;;;;;;;2.58;74.24;101409.73;107632;1251;99244;-63
2023/12/06 01:50:35;;;;;;;18.90;9.50;;;;;;;2.54;74.77;101407.04;107690;1256;99741;-61
2023/12/06 01:53:04;;;;;;;16.10;9.20;;;;;;;2.54;75.23;101408.98;107655;1251;112480;-62
2023/12/06 01:55:33;;;;;;;22.90;9.60;;;;;;;2.54;74.84;101409.38;107583;1251;107995;-60
2023/12/06 01:58:03;;;;;;;15.10;9.40;;;;;;;2.53;74.93;101404.96;107636;1250;106864;-63
2023/12/06 02:00:32;;;;;;;15.30;9.00;;;;;;;2.54;74.88;101407.63;107649;1255;99186;-62
2023/12/06 02:03:00;;;;;;;20.70;10.00;;;;;;;2.47;74.85;101404.15;107468;1252;99242;-61
2023/12/06 02:05:29;;;;;;;18.90;9.60;;;;;;;2.39;75.11;101406.45;107571;1251;113214;-61
2023/12/06 02:07:59;;;;;;;16.30;10.10;;;;;;;2.33;75.06;101406.35;107600;1251;110142;-62
2023/12/06 02:10:27;;;;;;;18.70;10.20;;;;;;;2.30;75.00;101399.61;107603;1253;107618;-64
2023/12/06 02:12:56;;;;;;;15.80;9.70;;;;;;;2.23;75.49;101401.16;107539;1253;99223;-62
2023/12/06 02:15:25;;;;;;;17.20;10.50;;;;;;;2.21;75.56;101404.09;107571;1250;99069;-63
2023/12/06 02:17:53;;;;;;;21.60;10.50;;;;;;;2.21;75.78;101401.08;107609;1251;112302;-64
2023/12/06 02:20:23;;;;;;;17.30;9.40;;;;;;;2.21;75.99;101399.48;107645;1253;109979;-64
2023/12/06 02:22:53;;;;;;;19.30;9.20;;;;;;;2.23;76.37;101399.56;107611;1255;106843;-64
2023/12/06 02:25:22;;;;;;;20.80;10.80;;;;;;;2.27;76.41;101402.41;107591;1251;99238;-64
2023/12/06 02:27:50;;;;;;;20.70;11.10;;;;;;;2.34;77.11;101403.85;107591;1251;99697;-62
2023/12/06 02:30:18;;;;;;;24.20;12.40;;;;;;;2.41;77.06;101398.05;107587;1254;112739;-61
2023/12/06 02:32:46;;;;;;;17.30;9.40;;;;;;;2.47;76.81;101397.96;107616;1250;110313;-62
2023/12/06 02:35:26;;;;;;;22.80;10.30;;;;;;;2.44;76.52;101397.73;107602;1254;108130;-62
2023/12/06 02:37:56;;;;;;;20.30;10.10;;;;;;;2.45;76.39;101396.67;107613;1251;99280;-61
2023/12/06 02:40:27;;;;;;;18.10;9.50;;;;;;;2.45;76.94;101400.91;107650;1250;99172;-63
2023/12/06 02:42:56;;;;;;;19.00;10.80;;;;;;;2.43;76.89;101396.02;107570;1250;113274;-63
2023/12/06 02:45:25;;;;;;;30.20;11.40;;;;;;;2.43;76.79;101401.85;107597;1253;109983;-61
2023/12/06 02:47:53;;;;;;;18.30;10.50;;;;;;;2.43;76.83;101402.05;107578;1251;107230;-62
2023/12/06 02:50:22;;;;;;;19.80;10.50;;;;;;;2.48;77.13;101402.17;107598;1250;99370;-61
2023/12/06 02:52:51;;;;;;;19.10;10.00;;;;;;;2.56;77.14;101403.61;107633;1249;99111;-62
2023/12/06 02:55:19;;;;;;;25.60;9.80;;;;;;;2.60;76.91;101406.42;107572;1251;113518;-62
2023/12/06 02:57:48;;;;;;;17.90;9.20;;;;;;;2.63;76.68;101404.14;107619;1250;109450;-62
2023/12/06 03:00:17;;;;;;;15.70;9.10;;;;;;;2.68;76.75;101405.18;107603;1251;108771;-62
2023/12/06 03:02:45;;;;;;;32.60;12.20;;;;;;;2.69;76.52;101406.05;107587;1250;99184;-63
2023/12/06 03:05:13;;;;;;;20.60;10.10;;;;;;;2.64;76.45;101406.61;107587;1249;99067;-63
2023/12/06 03:07:42;;;;;;;25.10;10.60;;;;;;;2.61;76.38;101406.00;107611;1251;113387;-63
2023/12/06 03:10:10;;;;;;;20.50;10.80;;;;;;;2.58;76.48;101402.96;107567;1252;108677;-62
2023/12/06 03:12:39;;;;;;;20.70;9.80;;;;;;;2.56;76.63;101408.20;107571;1250;108817;-62
2023/12/06 03:15:08;;;;;;;18.80;10.70;;;;;;;2.54;76.87;101406.70;107567;1251;99170;-62
2023/12/06 03:17:36;;;;;;;19.60;9.90;;;;;;;2.54;76.93;101405.12;107628;1250;99076;-63
2023/12/06 03:20:09;;;;;;;18.90;9.40;;;;;;;2.53;76.93;101408.34;107615;1253;112826;-62
2023/12/06 03:22:37;;;;;;;24.00;10.30;;;;;;;2.56;77.20;101409.10;107664;1251;110534;-63
2023/12/06 03:25:07;;;;;;;16.60;9.70;;;;;;;2.61;77.26;101407.83;107553;1252;108153;-63
2023/12/06 03:27:35;;;;;;;21.40;10.90;;;;;;;2.64;77.17;101402.36;107626;1253;99259;-62
2023/12/06 03:30:06;;;;;;;18.70;10.40;;;;;;;2.67;77.14;101405.22;107664;1251;99846;-61
2023/12/06 03:32:34;;;;;;;19.30;10.80;;;;;;;2.69;76.77;101407.79;107681;1251;112797;-60
2023/12/06 03:35:04;;;;;;;19.90;11.60;;;;;;;2.65;76.43;101405.13;107639;1251;109939;-62
2023/12/06 03:37:32;;;;;;;23.50;12.10;;;;;;;2.61;76.16;101406.06;107643;1251;107198;-62
2023/12/06 03:40:00;;;;;;;21.20;12.00;;;;;;;2.56;75.97;101406.95;107637;1251;99182;-62
2023/12/06 03:42:29;;;;;;;22.80;10.90;;;;;;;2.51;75.96;101406.30;107604;1251;99055;-61
2023/12/06 03:44:58;;;;;;;27.50;11.90;;;;;;;2.46;75.94;101402.98;107429;1251;113455;-62
2023/12/06 03:47:27;;;;;;;25.70;10.80;;;;;;;2.41;76.16;101402.32;107643;1250;109198;-63
2023/12/06 03:49:56;;;;;;;23.10;11.50;;;;;;;2.40;76.07;101399.89;107551;1250;106300;-63
2023/12/06 03:52:24;;;;;;;21.00;11.60;;;;;;;2.40;76.26;101398.45;107623;1251;99262;-62
2023/12/06 03:54:53;;;;;;;19.10;10.70;;;;;;;2.45;76.54;101403.04;107596;1251;99704;-63
2023/12/06 03:57:22;;;;;;;20.60;11.10;;;;;;;2.46;76.61;101404.91;107604;1251;114356;-61
2023/12/06 03:59:51;;;;;;;21.00;10.70;;;;;;;2.43;76.57;101406.45;107592;1250;109961;-61
2023/12/06 04:02:20;;;;;;;25.00;11.70;;;;;;;2.43;76.42;101413.02;107574;1251;108588;-61
2023/12/06 04:04:48;;;;;;;21.10;12.30;;;;;;;2.46;76.69;101410.77;107581;1251;99178;-61
2023/12/06 04:07:16;;;;;;;25.30;11.30;;;;;;;2.51;76.85;101406.30;107580;1251;99090;-61
2023/12/06 04:09:45;;;;;;;20.30;10.80;;;;;;;2.55;76.89;101410.73;107594;1251;113554;-63
2023/12/06 04:12:14;;;;;;;20.00;9.60;;;;;;;2.59;76.73;101414.29;107626;1251;108912;-62
2023/12/06 04:14:42;;;;;;;18.40;10.90;;;;;;;2.61;77.00;101414.15;107583;1250;108156;-62
2023/12/06 04:17:11;;;;;;;20.70;11.00;;;;;;;2.64;76.76;101417.06;107601;1250;99882;-64
2023/12/06 04:19:39;;;;;;;23.90;11.00;;;;;;;2.62;76.64;101416.27;107689;1251;99175;-62
2023/12/06 04:22:08;;;;;;;24.00;10.50;;;;;;;2.63;76.52;101413.58;107601;1250;112533;-63
2023/12/06 04:24:37;;;;;;;24.90;10.10;;;;;;;2.68;77.03;101413.68;107718;1255;108145;-63
2023/12/06 04:27:06;;;;;;;19.80;9.90;;;;;;;2.75;76.77;101413.55;107549;1251;108578;-61
2023/12/06 04:29:34;;;;;;;20.50;10.40;;;;;;;2.80;77.02;101410.15;107601;1250;99172;-63
2023/12/06 04:32:04;;;;;;;24.10;10.90;;;;;;;2.82;76.57;101407.92;107636;1251;99070;-61
2023/12/06 04:34:33;;;;;;;15.70;9.70;;;;;;;2.82;76.24;101407.20;107623;1251;111627;-62
2023/12/06 04:37:01;;;;;;;19.10;10.20;;;;;;;2.73;76.01;101409.92;107600;1250;109022;-61
2023/12/06 04:39:29;;;;;;;19.90;10.60;;;;;;;2.63;76.04;101412.48;107671;1251;108514;-62
2023/12/06 04:41:58;;;;;;;20.70;11.60;;;;;;;2.56;75.88;101415.80;107575;1253;99268;-62
2023/12/06 04:44:26;;;;;;;21.30;12.20;;;;;;;2.49;76.02;101415.93;107635;1251;99717;-62
2023/12/06 04:46:55;;;;;;;17.30;11.60;;;;;;;2.43;76.23;101414.98;107668;1251;113738;-62
2023/12/06 04:49:23;;;;;;;23.90;12.70;;;;;;;2.36;76.14;101416.54;107678;1251;110191;-63
2023/12/06 04:51:52;;;;;;;21.60;11.70;;;;;;;2.32;76.28;101418.80;107592;1251;108511;-62
2023/12/06 04:54:23;;;;;;;19.50;11.20;;;;;;;2.33;76.71;101421.09;107671;1250;99175;-61
2023/12/06 04:56:52;;;;;;;18.30;11.50;;;;;;;2.37;77.02;101420.02;107614;1250;99080;-63
2023/12/06 04:59:21;;;;;;;26.70;10.70;;;;;;;2.41;77.33;101419.81;107616;1250;113572;-62
2023/12/06 05:01:49;;;;;;;20.70;11.90;;;;;;;2.45;77.21;101417.02;107700;1251;108791;-63
2023/12/06 05:04:18;;;;;;;20.30;11.30;;;;;;;2.47;77.05;101417.47;107604;1250;108145;-63
2023/12/06 05:06:46;;;;;;;19.60;10.80;;;;;;;2.46;77.00;101413.77;107561;1251;99624;-63
2023/12/06 05:09:15;;;;;;;24.30;11.00;;;;;;;2.47;77.12;101413.37;107606;1249;99332;-63
2023/12/06 05:11:43;;;;;;;22.70;11.80;;;;;;;2.46;76.99;101411.14;107609;1253;112785;-62
2023/12/06 05:14:11;;;;;;;21.70;11.30;;;;;;;2.47;77.24;101412.48;107600;1251;108942;-62
2023/12/06 05:16:39;;;;;;;27.50;12.60;;;;;;;2.46;77.22;101411.64;107605;1253;107511;-62
2023/12/06 05:19:09;;;;;;;23.60;12.30;;;;;;;2.45;77.07;101417.16;107604;1253;99299;-62
2023/12/06 05:21:38;;;;;;;22.00;12.60;;;;;;;2.48;77.23;101412.47;107598;1253;99083;-63
2023/12/06 05:24:07;;;;;;;19.70;12.00;;;;;;;2.53;77.62;101415.08;107604;1251;114178;-64
2023/12/06 05:26:35;;;;;;;22.00;12.70;;;;;;;2.58;77.72;101411.66;107600;1250;108634;-62
2023/12/06 05:29:03;;;;;;;19.60;12.30;;;;;;;2.61;77.67;101411.34;107588;1253;108356;-62
2023/12/06 05:31:32;;;;;;;26.40;12.70;;;;;;;2.63;77.57;101414.08;107588;1249;99187;-60
2023/12/06 05:34:00;;;;;;;21.00;12.60;;;;;;;2.65;77.47;101413.45;107588;1251;99774;-60
2023/12/06 05:36:29;;;;;;;29.20;14.70;;;;;;;2.64;77.23;101419.16;107633;1251;113634;-61
2023/12/06 05:38:57;;;;;;;25.90;12.20;;;;;;;2.60;77.33;101418.13;107572;1253;109759;-63
2023/12/06 05:41:25;;;;;;;23.20;13.80;;;;;;;2.55;77.40;101417.64;107600;1253;108600;-62
2023/12/06 05:43:54;;;;;;;26.30;13.10;;;;;;;2.51;77.36;101420.31;107609;1251;99290;-62
2023/12/06 05:46:22;;;;;;;27.70;14.90;;;;;;;2.48;77.79;101424.30;107675;1251;99192;-62
2023/12/06 05:48:51;;;;;;;24.80;14.20;;;;;;;2.47;77.78;101428.77;107597;1250;112525;-62
2023/12/06 05:51:20;;;;;;;21.80;13.20;;;;;;;2.45;77.71;101434.16;107634;1251;109731;-63
2023/12/06 05:53:49;;;;;;;26.20;12.50;;;;;;;2.46;78.06;101436.27;107493;1252;107811;-64
2023/12/06 05:56:17;;;;;;;36.70;13.60;;;;;;;2.51;78.33;101435.70;107617;1252;99251;-63
2023/12/06 05:58:46;;;;;;;26.00;13.60;;;;;;;2.54;78.37;101435.77;107666;1252;99376;-63
2023/12/06 06:01:15;;;;;;;34.40;14.60;;;;;;;2.55;78.44;101434.98;107577;1251;112473;-61
2023/12/06 06:03:43;;;;;;;24.70;12.60;;;;;;;2.57;78.63;101441.80;107690;1251;109800;-63
2023/12/06 06:06:12;;;;;;;27.10;12.50;;;;;;;2.60;78.31;101439.38;107638;1250;107632;-61
2023/12/06 06:08:40;;;;;;;26.90;14.00;;;;;;;2.60;78.37;101445.20;107624;1251;99274;-62
2023/12/06 06:11:08;;;;;;;24.00;14.20;;;;;;;2.56;78.08;101442.02;107602;1251;99074;-64
2023/12/06 06:13:37;;;;;;;23.70;14.00;;;;;;;2.57;78.23;101446.96;107580;1253;112184;-62
2023/12/06 06:16:06;;;;;;;22.60;12.70;;;;;;;2.60;78.47;101445.73;107625;1255;108789;-64
2023/12/06 06:18:36;;;;;;;27.10;13.10;;;;;;;2.60;78.46;101446.08;107632;1252;106636;-64
2023/12/06 06:21:05;;;;;;;18.80;12.50;;;;;;;2.57;78.43;101443.77;107572;1253;99157;-63
2023/12/06 06:23:34;;;;;;;39.90;20.30;;;;;;;2.61;78.92;101444.44;107643;1255;99077;-61
2023/12/06 06:26:03;;;;;;;33.20;15.30;;;;;;;2.65;78.54;101444.98;107602;1252;113391;-61
2023/12/06 06:28:31;;;;;;;24.50;14.40;;;;;;;2.62;78.65;101446.88;107647;1255;109684;-62
2023/12/06 06:31:01;;;;;;;26.40;14.40;;;;;;;2.60;78.68;101445.41;107607;1251;107386;-62
2023/12/06 06:33:30;;;;;;;21.70;14.20;;;;;;;2.57;78.65;101447.13;107558;1255;99851;-61
2023/12/06 06:35:59;;;;;;;25.00;14.50;;;;;;;2.58;78.92;101446.72;107655;1251;99061;-62
2023/12/06 06:38:27;;;;;;;29.40;15.90;;;;;;;2.63;78.81;101446.86;107604;1251;112524;-63
2023/12/06 06:40:56;;;;;;;21.50;13.30;;;;;;;2.64;78.79;101444.16;107629;1254;109394;-63
2023/12/06 06:43:24;;;;;;;22.80;13.60;;;;;;;2.67;78.88;101445.27;107481;1253;109013;-63
2023/12/06 06:45:53;;;;;;;25.80;15.10;;;;;;;2.70;78.89;101449.55;107595;1251;99186;-63
2023/12/06 06:48:22;;;;;;;30.60;14.70;;;;;;;2.72;78.87;101451.96;107599;1253;99684;-64
2023/12/06 06:50:52;;;;;;;26.30;14.10;;;;;;;2.73;78.76;101452.59;107652;1253;113223;-62
2023/12/06 06:53:22;;;;;;;27.70;14.70;;;;;;;2.76;78.91;101450.90;107639;1252;109917;-61
2023/12/06 06:55:50;;;;;;;24.90;13.70;;;;;;;2.79;79.06;101453.59;107593;1254;107561;-63
2023/12/06 06:58:18;;;;;;;25.80;14.30;;;;;;;2.83;78.95;101454.83;107432;1252;99187;-61
2023/12/06 07:00:47;;;;;;;31.20;14.70;;;;;;;2.88;79.09;101455.86;107633;1252;99078;-63
2023/12/06 07:03:17;;;;;;;25.30;15.60;;;;;;;2.92;79.16;101461.85;107469;1253;113417;-63
2023/12/06 07:05:45;;;;;;;24.00;14.90;;;;;;;2.95;79.17;101461.39;107698;1251;110003;-61
2023/12/06 07:08:14;;;;;;;23.60;13.40;;;;;;;2.95;78.85;101466.52;107609;1251;108203;-62
2023/12/06 07:10:47;;;;;;;21.80;14.20;;;;;;;2.96;78.93;101465.21;107590;1251;99128;-62
2023/12/06 07:13:15;;;;;;;25.80;13.40;;;;;;;2.97;79.05;101471.90;107604;1251;99064;-62
2023/12/06 07:15:44;;;;;;;20.30;13.40;;;;;;;2.95;78.79;101469.16;107485;1253;113421;-63
2023/12/06 07:18:14;;;;;;;22.60;12.90;;;;;;;2.95;78.94;101468.48;107443;1252;109714;-64
2023/12/06 07:20:44;;;;;;;20.30;12.90;;;;;;;2.94;78.74;101469.04;107643;1250;107824;-62
2023/12/06 07:23:18;;;;;;;22.10;11.60;;;;;;;2.96;79.06;101469.64;107616;1250;99265;-62
2023/12/06 07:25:46;;;;;;;21.10;11.50;;;;;;;3.02;79.23;101472.58;107573;1251;99184;-63
2023/12/06 07:28:15;;;;;;;27.00;13.90;;;;;;;3.05;79.00;101471.39;107633;1251;112097;-62
2023/12/06 07:30:43;;;;;;;20.90;12.90;;;;;;;3.04;79.07;101471.27;107543;1251;108635;-62
2023/12/06 07:33:12;;;;;;;20.20;12.90;;;;;;;3.10;79.18;101468.80;107535;1257;108506;-62
2023/12/06 07:35:41;;;;;;;21.30;12.90;;;;;;;3.19;79.27;101472.89;107568;1251;99052;-63
2023/12/06 07:38:11;;;;;;;22.10;13.90;;;;;;;3.20;79.10;101473.71;107633;1251;99074;-62
2023/12/06 07:40:39;;;;;;;20.10;12.40;;;;;;;3.11;78.84;101476.94;107591;1251;112678;-62
2023/12/06 07:43:08;;;;;;;23.50;12.20;;;;;;;3.07;79.01;101478.91;107637;1251;109730;-62
2023/12/06 07:45:36;;;;;;;19.10;11.70;;;;;;;3.08;79.06;101479.05;107582;1251;107739;-62
2023/12/06 07:48:05;;;;;;;18.70;10.80;;;;;;;3.09;79.05;101478.98;107621;1251;99256;-62
2023/12/06 07:50:34;;;;;;;18.20;10.90;;;;;;;3.08;78.65;101478.13;107625;1253;99707;-63
2023/12/06 07:53:03;;;;;;;17.50;9.60;;;;;;;3.08;78.94;101480.80;107664;1254;111964;-62
2023/12/06 07:55:32;;;;;;;17.90;10.00;;;;;;;3.07;78.86;101481.56;107597;1251;109834;-61
2023/12/06 07:58:01;;;;;;;17.60;9.80;;;;;;;3.07;79.02;101487.94;107624;1255;107546;-61
2023/12/06 08:00:29;;;;;;;17.60;9.00;;;;;;;3.00;78.85;101482.92;107567;1255;99258;-62
2023/12/06 08:02:57;;;;;;;17.20;9.70;;;;;;;2.93;78.83;101485.38;107576;1252;99244;-63
2023/12/06 08:05:26;;;;;;;13.70;8.50;;;;;;;2.91;79.01;101482.45;107613;1251;114017;-61
2023/12/06 08:07:54;;;;;;;13.60;8.90;;;;;;;2.90;79.12;101483.59;107659;1253;109683;-62
2023/12/06 08:10:23;;;;;;;11.80;8.10;;;;;;;2.89;79.45;101483.80;107508;1256;108451;-62
2023/12/06 08:12:54;;;;;;;9.10;6.50;;;;;;;2.89;79.37;101481.84;107592;1252;99339;-61
2023/12/06 08:15:23;;;;;;;10.30;6.90;;;;;;;2.88;79.69;101484.73;107588;1251;99705;-62
2023/12/06 08:17:52;;;;;;;11.80;7.30;;;;;;;2.90;80.12;101481.44;107624;1251;113405;-63
2023/12/06 08:20:20;;;;;;;13.90;8.10;;;;;;;2.91;80.16;101483.56;107638;1251;109929;-65
2023/12/06 08:22:49;;;;;;;11.50;7.80;;;;;;;2.92;80.34;101482.07;107593;1249;107235;-64
2023/12/06 08:25:17;;;;;;;14.20;7.80;;;;;;;2.95;80.42;101479.44;107601;1252;99197;-61
2023/12/06 08:27:46;;;;;;;11.80;7.90;;;;;;;3.01;80.96;101480.08;107625;1251;99206;-62
2023/12/06 08:30:15;;;;;;;15.20;7.10;;;;;;;3.07;80.65;101480.84;107640;1250;113089;-61
2023/12/06 08:32:45;;;;;;;13.40;8.60;;;;;;;3.09;80.54;101484.49;107580;1252;109801;-61
2023/12/06 08:35:14;;;;;;;13.00;7.20;;;;;;;3.08;80.33;101483.83;107615;1256;108338;-61
2023/12/06 08:37:42;;;;;;;13.60;8.50;;;;;;;3.07;80.50;101483.71;107553;1251;99307;-62
2023/12/06 08:40:12;;;;;;;11.10;7.60;;;;;;;3.05;80.56;101481.52;107610;1253;99818;-62
2023/12/06 08:42:41;;;;;;;16.80;8.60;;;;;;;3.05;80.57;101477.59;107622;1250;114438;-63
2023/12/06 08:45:10;;;;;;;12.70;8.50;;;;;;;3.06;80.72;101474.16;107584;1251;109293;-62
2023/12/06 08:47:40;;;;;;;16.90;9.00;;;;;;;3.06;80.72;101471.15;107569;1252;108728;-62
2023/12/06 08:50:10;;;;;;;16.30;8.90;;;;;;;3.02;80.58;101472.41;107637;1253;99195;-63
2023/12/06 08:52:38;;;;;;;16.30;9.10;;;;;;;3.04;81.17;101470.88;107582;1251;99253;-63
2023/12/06 08:55:07;;;;;;;13.60;8.80;;;;;;;3.08;81.10;101472.11;107619;1253;113187;-62
2023/12/06 08:57:36;;;;;;;21.20;9.90;;;;;;;3.13;81.40;101475.23;107641;1251;110110;-62
2023/12/06 09:00:11;;;;;;;12.20;8.80;;;;;;;3.21;81.42;101477.55;107600;1251;107385;-62
2023/12/06 09:02:42;;;;;;;20.00;9.70;;;;;;;3.30;81.26;101478.41;107559;1255;99263;-62
2023/12/06 09:05:11;;;;;;;16.50;9.50;;;;;;;3.29;80.98;101475.77;107628;1251;99062;-61
2023/12/06 09:07:41;;;;;;;18.10;9.80;;;;;;;3.28;80.73;101477.76;107635;1253;112678;-62
2023/12/06 09:10:09;;;;;;;17.30;10.00;;;;;;;3.26;80.63;101470.76;107669;1251;109720;-61
2023/12/06 09:12:39;;;;;;;16.10;8.60;;;;;;;3.20;80.56;101471.03;107602;1252;107642;-62
2023/12/06 09:15:08;;;;;;;15.90;9.00;;;;;;;3.20;80.74;101469.46;107608;1253;99181;-63
2023/12/06 09:17:36;;;;;;;16.70;9.00;;;;;;;3.19;80.83;101473.41;107650;1253;99188;-62
2023/12/06 09:20:06;;;;;;;21.70;12.20;;;;;;;3.18;80.89;101472.95;107591;1250;113255;-62
2023/12/06 09:22:34;;;;;;;17.80;10.30;;;;;;;3.22;80.93;101466.35;107643;1251;109940;-63
2023/12/06 09:25:04;;;;;;;17.50;10.00;;;;;;;3.26;81.22;101463.48;107623;1253;107851;-61
2023/12/06 09:27:33;;;;;;;17.10;10.20;;;;;;;3.34;81.33;101457.27;107631;1253;99284;-62
2023/12/06 09:30:03;;;;;;;22.40;11.60;;;;;;;3.42;81.08;101455.84;107573;1250;99169;-61
2023/12/06 09:32:31;;;;;;;20.50;10.60;;;;;;;3.47;80.99;101454.73;107623;1251;113156;-62
2023/12/06 09:35:00;;;;;;;20.30;9.80;;;;;;;3.51;80.80;101450.63;107623;1251;109662;-61
2023/12/06 09:37:28;;;;;;;21.50;10.80;;;;;;;3.53;80.50;101448.04;107571;1250;107676;-62
2023/12/06 09:39:57;;;;;;;18.10;10.50;;;;;;;3.46;80.24;101447.50;107573;1251;99149;-63
2023/12/06 09:42:27;;;;;;;20.00;11.50;;;;;;;3.42;80.10;101445.17;107686;1251;99073;-63
2023/12/06 09:44:57;;;;;;;22.00;10.90;;;;;;;3.45;80.38;101446.27;107679;1250;111331;-64
2023/12/06 09:47:28;;;;;;;16.00;9.80;;;;;;;3.42;80.37;101447.12;107517;1253;109629;-62
2023/12/06 09:49:56;;;;;;;22.40;10.90;;;;;;;3.41;80.49;101445.61;107570;1252;108714;-63
2023/12/06 09:52:24;;;;;;;21.30;10.80;;;;;;;3.41;80.43;101445.92;107523;1253;99148;-63
2023/12/06 09:54:55;;;;;;;19.50;11.10;;;;;;;3.41;80.19;101448.26;107593;1251;99254;-62
2023/12/06 09:57:23;;;;;;;28.50;13.10;;;;;;;3.46;80.55;101446.60;107613;1252;112236;-62
2023/12/06 09:59:52;;;;;;;23.10;12.50;;;;;;;3.54;80.68;101446.44;107578;1253;110136;-61
2023/12/06 10:02:21;;;;;;;26.10;11.80;;;;;;;3.59;80.66;101442.59;107635;1254;107982;-62
2023/12/06 10:04:49;;;;;;;22.70;10.90;;;;;;;3.68;80.91;101443.58;107592;1254;99279;-62
2023/12/06 10:07:20;;;;;;;22.90;11.30;;;;;;;3.74;80.60;101440.25;107642;1253;99688;-63
2023/12/06 10:09:50;;;;;;;19.10;10.90;;;;;;;3.70;79.98;101440.85;107671;1254;112696;-62
2023/12/06 10:12:19;;;;;;;22.60;12.60;;;;;;;3.67;80.14;101439.02;107145;1251;692332;-62
2023/12/06 10:14:57;;;;;;;19.20;10.80;;;;;;;3.68;80.12;101436.33;107591;1251;107847;-61
2023/12/06 10:17:26;;;;;;;20.60;11.30;;;;;;;3.71;80.09;101431.72;107542;1250;99928;-63
2023/12/06 10:19:57;;;;;;;21.80;11.80;;;;;;;3.69;79.87;101427.20;107642;1251;99172;-61
2023/12/06 10:22:29;;;;;;;16.40;11.00;;;;;;;3.71;80.11;101430.69;107596;1250;112870;-62
2023/12/06 10:24:59;;;;;;;22.60;11.40;;;;;;;3.72;80.31;101424.20;107658;1251;109860;-61
2023/12/06 10:27:30;;;;;;;22.60;11.80;;;;;;;3.76;80.80;101420.86;107565;1251;108086;-63
2023/12/06 10:29:59;;;;;;;18.40;11.50;;;;;;;3.79;80.71;101417.38;107543;1252;99176;-64
2023/12/06 10:32:30;;;;;;;19.90;11.00;;;;;;;3.82;80.87;101412.21;107615;1250;99072;-62
2023/12/06 10:35:05;;;;;;;20.70;11.60;;;;;;;3.81;80.51;101414.40;107575;1252;112411;-61
2023/12/06 10:37:34;;;;;;;23.10;12.30;;;;;;;3.75;80.27;101412.95;107576;1253;108625;-62
2023/12/06 10:40:09;;;;;;;28.90;13.10;;;;;;;3.72;80.30;101412.02;107523;1253;107700;-61
2023/12/06 10:42:43;;;;;;;23.20;12.80;;;;;;;3.72;80.42;101413.95;107555;1255;99384;-61
2023/12/06 10:45:14;;;;;;;19.20;12.80;;;;;;;3.72;80.64;101411.44;107657;1253;99252;-62
2023/12/06 10:47:44;;;;;;;25.10;13.30;;;;;;;3.70;80.62;101409.63;107641;1251;112177;-60
2023/12/06 10:50:14;;;;;;;19.90;12.70;;;;;;;3.70;80.58;101403.77;107591;1252;109522;-62
2023/12/06 10:52:44;;;;;;;26.70;11.90;;;;;;;3.70;80.65;101408.38;107656;1253;108758;-63
2023/12/06 10:55:17;;;;;;;22.20;14.10;;;;;;;3.69;80.93;101399.90;107677;1251;99206;-61
2023/12/06 10:57:46;;;;;;;22.10;14.00;;;;;;;3.69;80.91;101402.02;107649;1251;99080;-63
2023/12/06 11:00:17;;;;;;;18.80;10.90;;;;;;;3.74;81.11;101401.62;107647;1250;113666;-62
2023/12/06 11:02:45;;;;;;;23.90;11.60;;;;;;;3.80;81.14;101395.64;107608;1251;109963;-61
2023/12/06 11:05:16;;;;;;;21.50;12.30;;;;;;;3.83;80.89;101397.27;107523;1254;107909;-61
2023/12/06 11:07:56;;;;;;;26.40;13.70;;;;;;;3.85;80.94;101392.92;107612;1253;99183;-60
2023/12/06 11:10:36;;;;;;;36.30;16.90;;;;;;;3.83;80.70;101387.34;107612;1252;99326;-60
2023/12/06 11:13:13;;;;;;;40.00;19.30;;;;;;;3.80;80.74;101386.79;107582;1253;112661;-61
2023/12/06 11:16:05;;;;;;;29.60;16.80;;;;;;;3.79;80.52;101382.56;107557;1253;109723;-63